Thunder radar more information blitzortung!


Rain radar  rain snow radar



Ingen spesiell oppmerksomhet nødvendig.    Det er ingen advarsler

Nearby METAR Reports

   
ENZV - Stavanger
Oppdatert: Sep 28 2021 9:20 am
Noen skyer  
Noen skyer  
   Vind: ØSØ 3.1 m/s
Vind: ØSØ 3.1 m/s
Temperatur: 12°C
Duggpunkt: 9°C
Luftfuktighet: 82%
Barometer: 1016 hPa
Skyer: Few Clouds
Sikt: More than 10 km
Detaljer skyer: Noen skyer 2800 ft
ENZV 280720Z 12006KT 9999 FEW028 12/09 Q1016 NOSIG
ENCN - Kristiansand
Oppdatert: Sep 28 2021 9:20 am
Noen skyer  
Noen skyer  
   Vind: ØNØ 2.1 m/s
Vind: ØNØ 2.1 m/s
Temperatur: 10°C
Wind Chill: 9°C
Duggpunkt: 9°C
Luftfuktighet: 94%
Barometer: 1018 hPa
Skyer: Few Clouds
Sikt: More than 10 km
Detaljer skyer: Noen skyer 2000 ft
ENCN 280720Z 06004KT 9999 FEW020 10/09 Q1018
ENBR - Bergen
Oppdatert: Sep 28 2021 9:20 am
Noen skyer  
Noen skyer  
   Vind: SSØ 5.7 m/s
Vind: SSØ 5.7 m/s
Temperatur: 12°C
Duggpunkt: 8°C
Luftfuktighet: 77%
Barometer: 1015 hPa
Skyer: Few Clouds
Sikt: More than 10 km
Detaljer skyer: Noen skyer 2500 ft
ENBR 280720Z 15011KT 9999 FEW025 12/08 Q1015 NOSIG RMK WIND 1200FT 14020KT
ENGM - Oslo
Oppdatert: Sep 28 2021 9:20 am
For det meste Overskyet  
For det meste Overskyet  
   Vind: SØ 3.6 m/s
Vind: SØ 3.6 m/s
Temperatur: 11°C
Duggpunkt: 11°C
Luftfuktighet: 100%
Barometer: 1017 hPa
Skyer: Mostly Cloudy
Sikt: More than 10 km
Detaljer skyer: For det meste Overskyet 500 ft,
For det meste Overskyet 2800 ft
ENGM 280720Z 13007KT 9999 BKN005 BKN028 11/11 Q1017 NOSIG
ENVA - Trondheim
Oppdatert: Sep 28 2021 9:20 am
lett yr, For det meste Overskyet  
lett yr, For det meste Overskyet  
   Vind: ØSØ 4.1 m/s
Vind: ØSØ 4.1 m/s
Temperatur: 13°C
Duggpunkt: 6°C
Luftfuktighet: 63%
Barometer: 1016 hPa
Skyer: Mostly Cloudy
Sikt: More than 10 km
Detaljer skyer: Noen skyer 4000 ft,
For det meste Overskyet 8200 ft
ENVA 280720Z 11008KT 080V150 9999 -DZ FEW040 BKN082 13/06 Q1016 TEMPO RA RMK WIND 670FT 14007KT
ENTC - Tromsø
Oppdatert: Sep 28 2021 9:20 am
Klart  
Klart  
   Vind: varierende 1 m/s
Vind: varierende 1 m/s
Temperatur: 12°C
Duggpunkt: 6°C
Luftfuktighet: 67%
Barometer: 1018 hPa
Sikt: More than 10 km
Detaljer skyer: Klart ft
ENTC 280720Z VRB02KT CAVOK 12/06 Q1018 NOSIG RMK WIND 2600FT 18029KT

Script utviklet av  Saratoga-weather.org Tilpasset for tamplaten av  Weerstation Leuven

Du finner vår vær info også på:

European Weather Network

WeatherCloud

Weather Underground

AWEKAS

HAMweather, WeatherForYou, PWS Weather

Utrustning vi bruker:

vær-station
Davis VP2

vær-programmet
Weather Display

Davis VP2

Weather Display